createdAt,value
2023-07-03T00:00:15.663Z,63.13
2023-07-03T00:02:43.776Z,63.68
2023-07-03T00:05:11.561Z,64.28
2023-07-03T00:07:39.652Z,64.72
2023-07-03T00:10:07.429Z,64.42
2023-07-03T00:12:34.043Z,64.25
2023-07-03T00:15:00.801Z,65.07
2023-07-03T00:17:27.532Z,64.43
2023-07-03T00:19:54.319Z,65.23
2023-07-03T00:22:22.147Z,65.97
2023-07-03T00:24:48.772Z,66.48
2023-07-03T00:27:15.554Z,67.59
2023-07-03T00:29:42.145Z,67.44
2023-07-03T00:32:08.799Z,66.87
2023-07-03T00:34:35.272Z,68.10
2023-07-03T00:37:03.256Z,67.75
2023-07-03T00:39:29.938Z,67.99
2023-07-03T00:41:56.566Z,68.58
2023-07-03T00:44:24.432Z,68.79
2023-07-03T00:46:53.082Z,68.83
2023-07-03T00:49:21.694Z,69.55
2023-07-03T00:51:53.705Z,69.03
2023-07-03T00:54:20.616Z,69.21
2023-07-03T00:56:47.689Z,70.22
2023-07-03T00:59:16.220Z,70.92
2023-07-03T01:01:50.352Z,70.93
2023-07-03T01:04:31.593Z,70.99
2023-07-03T01:07:09.331Z,71.84
2023-07-03T01:09:44.582Z,72.30
2023-07-03T01:12:11.938Z,73.06
2023-07-03T01:14:40.605Z,73.07
2023-07-03T01:17:12.498Z,73.18
2023-07-03T01:19:45.520Z,74.53
2023-07-03T01:22:24.457Z,74.33
2023-07-03T01:25:16.290Z,74.96
2023-07-03T01:28:05.084Z,75.38
2023-07-03T01:30:56.068Z,75.12
2023-07-03T01:33:45.828Z,75.50
2023-07-03T01:36:34.475Z,77.11
2023-07-03T01:39:21.529Z,77.38
2023-07-03T01:41:49.449Z,77.32
2023-07-03T01:44:16.383Z,77.79
2023-07-03T01:46:42.952Z,78.97
2023-07-03T01:49:14.844Z,78.62
2023-07-03T01:51:59.280Z,79.10
2023-07-03T01:54:32.273Z,79.48
2023-07-03T01:57:01.290Z,79.65
2023-07-03T01:59:30.944Z,79.76
2023-07-03T02:02:06.202Z,79.72
2023-07-03T02:04:44.056Z,79.51
2023-07-03T02:07:12.916Z,79.69
2023-07-03T02:09:41.108Z,80.69
2023-07-03T02:12:11.022Z,81.08
2023-07-03T02:14:39.171Z,81.54
2023-07-03T02:17:07.541Z,81.19
2023-07-03T02:19:34.413Z,81.51
2023-07-03T02:22:01.579Z,82.33
2023-07-03T02:24:28.357Z,82.59
2023-07-03T02:26:55.385Z,82.89
2023-07-03T02:29:21.860Z,83.47
2023-07-03T02:31:48.448Z,83.49
2023-07-03T02:34:15.873Z,83.90
2023-07-03T02:36:42.644Z,84.01
2023-07-03T02:39:10.565Z,83.85
2023-07-03T02:41:37.382Z,83.61
2023-07-03T02:44:04.227Z,85.26
2023-07-03T02:46:33.345Z,85.59
2023-07-03T02:49:00.038Z,85.83
2023-07-03T02:51:27.149Z,85.07
2023-07-03T02:53:57.467Z,86.32
2023-07-03T02:56:24.450Z,85.91
2023-07-03T02:58:51.012Z,85.74
2023-07-03T03:01:23.293Z,85.71
2023-07-03T03:03:50.635Z,86.56
2023-07-03T03:06:17.371Z,86.51
2023-07-03T03:08:43.964Z,86.81
2023-07-03T03:11:10.761Z,86.96
2023-07-03T03:13:37.883Z,87.71
2023-07-03T03:16:04.964Z,88.49
2023-07-03T03:18:31.579Z,89.26
2023-07-03T03:20:58.372Z,88.38
2023-07-03T03:23:24.943Z,88.50
2023-07-03T03:25:51.770Z,89.09
2023-07-03T03:28:18.476Z,88.23
2023-07-03T03:30:46.703Z,88.09
2023-07-03T03:33:13.481Z,87.66
2023-07-03T03:35:40.141Z,87.10
2023-07-03T03:38:06.735Z,88.31
2023-07-03T03:40:33.468Z,88.34
2023-07-03T03:43:00.145Z,87.44
2023-07-03T03:45:26.638Z,88.69
2023-07-03T03:47:53.668Z,88.61
2023-07-03T03:50:20.308Z,88.43
2023-07-03T03:52:47.083Z,88.25
2023-07-03T03:55:13.829Z,88.50
2023-07-03T03:57:40.502Z,89.67
2023-07-03T04:00:16.560Z,88.88
2023-07-03T04:02:44.313Z,88.35
2023-07-03T04:05:12.503Z,89.37
2023-07-03T04:07:40.053Z,88.70
2023-07-03T04:10:07.225Z,88.67
2023-07-03T04:12:33.840Z,88.54
2023-07-03T04:15:00.393Z,88.33
2023-07-03T04:17:27.035Z,87.96
2023-07-03T04:19:53.523Z,88.79
2023-07-03T04:22:20.196Z,88.74
2023-07-03T04:24:46.667Z,89.48
2023-07-03T04:27:13.231Z,89.61
2023-07-03T04:29:39.808Z,89.87
2023-07-03T04:32:06.584Z,89.98
2023-07-03T04:34:33.229Z,89.70
2023-07-03T04:36:59.807Z,90.53
2023-07-03T04:39:26.765Z,89.79
2023-07-03T04:41:53.385Z,90.14
2023-07-03T04:44:20.004Z,90.53
2023-07-03T04:46:47.213Z,89.95
2023-07-03T04:49:13.808Z,89.84
2023-07-03T04:51:41.049Z,90.03
2023-07-03T04:54:07.616Z,90.40
2023-07-03T04:56:35.266Z,88.68
2023-07-03T04:59:01.844Z,89.81
2023-07-03T05:01:31.198Z,88.96
2023-07-03T05:03:58.340Z,88.04
2023-07-03T05:06:25.673Z,87.41
2023-07-03T05:08:52.507Z,87.74
2023-07-03T05:11:19.169Z,88.32
2023-07-03T05:13:45.660Z,89.40
2023-07-03T05:16:12.168Z,89.53
2023-07-03T05:18:38.801Z,90.23
2023-07-03T05:21:07.410Z,90.08
2023-07-03T05:23:34.075Z,90.30
2023-07-03T05:26:00.552Z,90.13
2023-07-03T05:28:27.497Z,89.90
2023-07-03T05:30:59.646Z,89.93
2023-07-03T05:33:28.601Z,87.88
2023-07-03T05:35:56.092Z,85.39
2023-07-03T05:38:22.994Z,84.75
2023-07-03T05:40:51.375Z,85.04
2023-07-03T05:43:19.639Z,85.51
2023-07-03T05:45:49.511Z,84.48
2023-07-03T05:48:16.708Z,84.78
2023-07-03T05:50:43.304Z,84.50
2023-07-03T05:53:10.376Z,84.58
2023-07-03T05:55:36.900Z,83.67
2023-07-03T05:58:04.054Z,83.19
2023-07-03T06:00:32.015Z,84.20
2023-07-03T06:03:00.417Z,83.37
2023-07-03T06:05:27.309Z,84.01
2023-07-03T06:07:53.973Z,82.54
2023-07-03T06:10:20.524Z,82.67
2023-07-03T06:12:47.097Z,81.83
2023-07-03T06:15:13.592Z,80.22
2023-07-03T06:17:41.876Z,79.47
2023-07-03T06:20:11.676Z,79.44
2023-07-03T06:22:42.907Z,77.72
2023-07-03T06:25:10.962Z,77.29
2023-07-03T06:27:37.644Z,76.99
2023-07-03T06:30:04.719Z,75.38
2023-07-03T06:32:31.425Z,75.55
2023-07-03T06:34:58.067Z,74.13
2023-07-03T06:37:24.773Z,73.85
2023-07-03T06:39:51.247Z,74.62
2023-07-03T06:42:17.761Z,72.94
2023-07-03T06:44:54.171Z,72.00
2023-07-03T06:47:20.682Z,69.44
2023-07-03T06:49:47.206Z,69.17
2023-07-03T06:52:13.694Z,68.37
2023-07-03T06:54:40.296Z,68.24
2023-07-03T06:57:06.846Z,67.76
2023-07-03T06:59:33.418Z,67.94
2023-07-03T07:01:59.983Z,67.22
2023-07-03T07:04:29.570Z,66.92
2023-07-03T07:06:56.998Z,65.42
2023-07-03T07:09:23.968Z,66.30
2023-07-03T07:11:50.694Z,65.40
2023-07-03T07:14:18.621Z,66.84
2023-07-03T07:16:45.281Z,66.21
2023-07-03T07:19:12.958Z,64.99
2023-07-03T07:21:42.324Z,63.20
2023-07-03T07:24:23.342Z,62.19
2023-07-03T07:26:51.562Z,60.08
2023-07-03T07:29:18.403Z,58.32
2023-07-03T07:31:44.894Z,58.58
2023-07-03T07:34:12.429Z,58.00
2023-07-03T07:36:40.647Z,58.67
2023-07-03T07:39:08.374Z,58.44
2023-07-03T07:41:35.419Z,58.41
2023-07-03T07:44:02.097Z,58.32
2023-07-03T07:46:31.598Z,56.74
2023-07-03T07:49:00.253Z,55.39
2023-07-03T07:51:27.344Z,54.26
2023-07-03T07:53:54.891Z,54.59
2023-07-03T07:56:23.010Z,54.42
2023-07-03T07:58:50.228Z,54.74
2023-07-03T08:01:17.276Z,55.00
2023-07-03T08:03:44.687Z,54.34
2023-07-03T08:06:11.938Z,54.31
2023-07-03T08:08:38.620Z,53.43
2023-07-03T08:11:07.229Z,54.39
2023-07-03T08:13:34.901Z,53.87
2023-07-03T08:16:01.687Z,54.15
2023-07-03T08:18:28.534Z,53.70
2023-07-03T08:20:55.564Z,53.04
2023-07-03T08:23:22.667Z,52.76
2023-07-03T08:25:55.390Z,51.80
2023-07-03T08:28:23.111Z,51.64
2023-07-03T08:30:50.170Z,51.74
2023-07-03T08:33:17.295Z,51.64
2023-07-03T08:38:14.059Z,51.78
2023-07-03T08:40:42.064Z,51.15
2023-07-03T08:43:12.501Z,50.76
2023-07-03T08:45:43.852Z,50.89
2023-07-03T08:48:16.966Z,51.30
2023-07-03T08:50:47.633Z,50.51
2023-07-03T08:53:19.121Z,50.54
2023-07-03T08:56:21.475Z,50.25
2023-07-03T08:58:51.915Z,51.47
2023-07-03T09:01:21.957Z,51.13
2023-07-03T09:04:24.205Z,50.87
2023-07-03T09:06:59.318Z,51.77
2023-07-03T09:09:40.966Z,52.82
2023-07-03T09:12:29.752Z,53.37
2023-07-03T09:15:07.783Z,53.00
2023-07-03T09:17:35.934Z,52.85
2023-07-03T09:20:05.587Z,53.18
2023-07-03T09:22:40.522Z,52.57
2023-07-03T09:25:15.665Z,52.40
2023-07-03T09:27:42.884Z,52.39
2023-07-03T09:30:15.111Z,52.40
2023-07-03T09:32:41.936Z,51.38
2023-07-03T09:35:17.003Z,51.73
2023-07-03T09:37:47.100Z,51.52
2023-07-03T09:40:24.901Z,52.53
2023-07-03T09:42:52.209Z,52.28
2023-07-03T09:45:22.213Z,52.83
2023-07-03T09:47:51.803Z,52.62
2023-07-03T09:50:27.284Z,52.15
2023-07-03T09:55:27.725Z,52.56
2023-07-03T09:57:54.864Z,51.99
2023-07-03T10:00:24.996Z,52.38
2023-07-03T10:08:03.830Z,53.86
2023-07-03T10:13:15.290Z,53.72
2023-07-03T10:15:43.088Z,54.02
2023-07-03T10:18:21.889Z,53.93
2023-07-03T10:20:51.308Z,54.08
2023-07-03T10:23:40.335Z,53.38
2023-07-03T10:26:29.720Z,51.92
2023-07-03T10:29:04.531Z,51.86
2023-07-03T10:31:37.886Z,52.28
2023-07-03T10:34:13.794Z,51.71
2023-07-03T10:36:42.899Z,50.27
2023-07-03T10:39:19.283Z,49.60
2023-07-03T10:41:51.605Z,49.12
2023-07-03T10:44:23.213Z,49.29
2023-07-03T10:46:59.932Z,49.47
2023-07-03T10:49:30.915Z,49.24
2023-07-03T10:52:22.623Z,49.85
2023-07-03T10:55:25.667Z,48.15
2023-07-03T10:58:01.175Z,49.73
2023-07-03T11:00:39.918Z,49.74
2023-07-03T11:03:31.114Z,49.82
2023-07-03T11:06:33.602Z,50.21
2023-07-03T11:09:23.469Z,50.42
2023-07-03T11:12:16.514Z,50.33
2023-07-03T11:14:46.078Z,49.37
2023-07-03T11:17:26.596Z,49.24
2023-07-03T11:19:53.106Z,50.56
2023-07-03T11:25:11.730Z,53.01
2023-07-03T11:27:54.891Z,52.56
2023-07-03T11:30:22.701Z,52.54
2023-07-03T11:32:51.083Z,52.67
2023-07-03T11:40:37.528Z,52.96
2023-07-03T11:45:40.188Z,52.13
2023-07-03T11:48:39.416Z,52.86
2023-07-03T11:51:15.835Z,52.96
2023-07-03T11:53:57.357Z,52.76
2023-07-03T11:56:45.466Z,52.24
2023-07-03T11:59:24.537Z,51.83
2023-07-03T12:01:52.965Z,51.96
2023-07-03T12:04:47.757Z,51.75
2023-07-03T12:07:22.926Z,52.43
2023-07-03T12:09:50.998Z,52.66
2023-07-03T12:12:26.814Z,51.30
2023-07-03T12:14:59.271Z,51.16
2023-07-03T12:17:28.954Z,51.27
2023-07-03T12:20:07.791Z,49.82
2023-07-03T12:22:46.618Z,50.38
2023-07-03T12:25:19.787Z,50.47
2023-07-03T12:27:47.759Z,50.05
2023-07-03T12:30:29.341Z,48.18
2023-07-03T12:32:58.412Z,48.37
2023-07-03T12:35:35.449Z,47.59
2023-07-03T12:38:11.508Z,47.27
2023-07-03T12:40:45.294Z,48.18
2023-07-03T12:43:18.159Z,47.77
2023-07-03T12:45:52.935Z,48.44
2023-07-03T12:48:21.419Z,48.11
2023-07-03T12:50:49.968Z,48.27
2023-07-03T12:53:19.447Z,50.23
2023-07-03T12:55:51.635Z,50.27
2023-07-03T12:58:20.090Z,51.00
2023-07-03T13:00:47.098Z,51.37
2023-07-03T13:03:16.604Z,51.59
2023-07-03T13:05:43.340Z,51.03
2023-07-03T13:08:16.730Z,49.95
2023-07-03T13:11:00.717Z,50.77
2023-07-03T13:13:27.858Z,50.71
2023-07-03T13:15:54.516Z,50.59
2023-07-03T13:18:23.909Z,49.16
2023-07-03T13:21:01.776Z,48.03
2023-07-03T13:23:37.581Z,47.25
2023-07-03T13:26:08.692Z,47.18
2023-07-03T13:28:42.407Z,48.65
2023-07-03T13:31:14.859Z,48.51
2023-07-03T13:33:43.196Z,49.22
2023-07-03T13:36:22.805Z,49.29
2023-07-03T13:39:18.764Z,49.99
2023-07-03T13:41:47.679Z,49.60
2023-07-03T13:44:16.465Z,50.75
2023-07-03T13:46:44.768Z,50.54
2023-07-03T13:49:15.387Z,52.11
2023-07-03T13:51:43.022Z,52.35
2023-07-03T13:54:12.404Z,52.16
2023-07-03T13:56:43.283Z,50.90
2023-07-03T13:59:10.509Z,50.05
2023-07-03T14:01:38.742Z,51.61
2023-07-03T14:04:06.596Z,51.35
2023-07-03T14:06:33.713Z,52.13
2023-07-03T14:09:00.278Z,51.26
2023-07-03T14:11:26.936Z,50.78
2023-07-03T14:13:54.085Z,51.02
2023-07-03T14:16:20.775Z,51.34
2023-07-03T14:18:47.409Z,51.70
2023-07-03T14:21:16.318Z,49.29
2023-07-03T14:23:43.749Z,48.13
2023-07-03T14:26:12.641Z,47.09
2023-07-03T14:28:40.551Z,46.89
2023-07-03T14:31:09.262Z,49.29
2023-07-03T14:33:36.088Z,50.72
2023-07-03T14:36:02.833Z,49.54
2023-07-03T14:38:29.456Z,50.31
2023-07-03T14:40:57.617Z,51.04
2023-07-03T14:43:24.353Z,50.15
2023-07-03T14:45:51.444Z,49.84
2023-07-03T14:48:18.347Z,48.05
2023-07-03T14:50:45.020Z,48.68
2023-07-03T14:53:11.601Z,49.80
2023-07-03T14:55:38.350Z,48.58
2023-07-03T14:58:09.396Z,49.43
2023-07-03T15:00:38.005Z,50.08
2023-07-03T15:03:04.754Z,50.46
2023-07-03T15:05:31.457Z,51.10
2023-07-03T15:07:58.090Z,51.44
2023-07-03T15:10:24.651Z,50.78
2023-07-03T15:12:51.220Z,51.18
2023-07-03T15:15:17.848Z,50.57
2023-07-03T15:17:44.477Z,50.11
2023-07-03T15:20:11.729Z,50.69
2023-07-03T15:22:38.372Z,50.60
2023-07-03T15:25:05.159Z,51.99
2023-07-03T15:27:31.867Z,51.70
2023-07-03T15:29:58.421Z,51.89
2023-07-03T15:32:25.077Z,51.82
2023-07-03T15:34:54.037Z,52.64
2023-07-03T15:37:21.594Z,54.22
2023-07-03T15:39:48.134Z,53.46
2023-07-03T15:42:15.253Z,54.24
2023-07-03T15:44:42.376Z,54.58
2023-07-03T15:47:09.979Z,54.49
2023-07-03T15:49:37.440Z,55.68
2023-07-03T15:52:05.883Z,55.56
2023-07-03T15:54:35.798Z,56.15
2023-07-03T15:57:04.207Z,55.21
2023-07-03T15:59:31.004Z,54.64
2023-07-03T16:01:58.162Z,55.29
2023-07-03T16:04:26.019Z,54.82
2023-07-03T16:06:52.623Z,55.63
2023-07-03T16:09:19.311Z,56.61
2023-07-03T16:11:45.962Z,57.07
2023-07-03T16:14:12.504Z,57.00
2023-07-03T16:16:39.061Z,57.52
2023-07-03T16:19:05.578Z,57.60
2023-07-03T16:21:34.267Z,58.49
2023-07-03T16:24:03.871Z,58.48
2023-07-03T16:26:31.749Z,58.53
2023-07-03T16:28:58.636Z,58.72
2023-07-03T16:31:28.275Z,59.46
2023-07-03T16:33:57.890Z,59.84
2023-07-03T16:36:27.753Z,59.50
2023-07-03T16:38:56.763Z,58.79
2023-07-03T16:46:11.192Z,56.91
2023-07-03T16:48:58.924Z,57.16
2023-07-03T16:51:45.399Z,54.67
2023-07-03T16:54:31.920Z,55.49
2023-07-03T16:57:18.341Z,56.26
2023-07-03T16:59:51.231Z,54.21
2023-07-03T17:02:17.793Z,52.04
2023-07-03T17:04:44.364Z,51.64
2023-07-03T17:07:10.945Z,51.90
2023-07-03T17:09:37.436Z,53.69
2023-07-03T17:12:04.259Z,54.43
2023-07-03T17:14:32.463Z,55.38
2023-07-03T17:16:58.993Z,55.61
2023-07-03T17:19:25.617Z,56.16
2023-07-03T17:21:52.140Z,54.92
2023-07-03T17:24:18.669Z,55.87
2023-07-03T17:26:45.486Z,56.37
2023-07-03T17:29:12.142Z,56.34
2023-07-03T17:31:38.739Z,58.26
2023-07-03T17:34:05.297Z,59.73
2023-07-03T17:36:31.965Z,59.73
2023-07-03T17:38:58.589Z,60.90
2023-07-03T17:41:25.073Z,62.14
2023-07-03T17:43:52.405Z,61.68
2023-07-03T17:46:19.136Z,63.50
2023-07-03T17:48:45.853Z,64.38
2023-07-03T17:51:12.489Z,64.91
2023-07-03T17:53:40.880Z,65.26
2023-07-03T17:56:07.551Z,66.21
2023-07-03T17:58:34.092Z,66.07
2023-07-03T18:01:02.490Z,65.26
2023-07-03T18:03:29.997Z,65.98
2023-07-03T18:05:57.181Z,66.08
2023-07-03T18:08:25.004Z,65.76
2023-07-03T18:10:51.936Z,67.67
2023-07-03T18:13:18.573Z,67.52
2023-07-03T18:15:54.873Z,68.09
2023-07-03T18:18:21.706Z,67.85
2023-07-03T18:20:49.027Z,68.78
2023-07-03T18:23:15.645Z,69.81
2023-07-03T18:25:42.184Z,71.32
2023-07-03T18:28:09.111Z,72.38
2023-07-03T18:30:35.800Z,72.94
2023-07-03T18:33:02.404Z,74.40
2023-07-03T18:35:29.201Z,77.93
2023-07-03T18:37:55.721Z,80.12
2023-07-03T18:40:22.285Z,80.51
2023-07-03T18:42:48.805Z,81.89
2023-07-03T18:45:15.481Z,82.59
2023-07-03T18:47:42.024Z,85.45
2023-07-03T18:50:09.730Z,86.84
2023-07-03T18:52:36.239Z,90.39
2023-07-03T18:55:02.901Z,89.40
2023-07-03T18:57:29.365Z,91.69
2023-07-03T18:59:56.011Z,95.39
2023-07-03T19:02:22.611Z,97.96
2023-07-03T19:04:49.219Z,99.84
2023-07-03T19:07:15.751Z,100.00
2023-07-03T19:09:42.332Z,100.00
2023-07-03T19:12:09.145Z,100.00
2023-07-03T19:14:36.441Z,100.00
2023-07-03T19:17:03.125Z,100.00
2023-07-03T19:19:29.698Z,100.00
2023-07-03T19:21:56.362Z,100.00
2023-07-03T19:24:23.265Z,100.00
2023-07-03T19:26:50.387Z,100.00
2023-07-03T19:29:17.290Z,100.00
2023-07-03T19:31:44.226Z,100.00
2023-07-03T19:34:10.864Z,100.00
2023-07-03T19:36:37.579Z,100.00
2023-07-03T19:39:04.673Z,100.00
2023-07-03T19:41:31.412Z,100.00
2023-07-03T19:43:58.108Z,100.00
2023-07-03T19:46:24.916Z,100.00
2023-07-03T19:48:51.518Z,100.00
2023-07-03T19:51:18.048Z,100.00
2023-07-03T19:53:44.552Z,100.00
2023-07-03T19:56:16.281Z,100.00
2023-07-03T19:58:43.657Z,100.00
2023-07-03T20:01:12.128Z,100.00
2023-07-03T20:03:39.802Z,100.00
2023-07-03T20:06:18.734Z,100.00
2023-07-03T20:08:50.153Z,100.00
2023-07-03T20:11:17.698Z,100.00
2023-07-03T20:13:46.482Z,100.00
2023-07-03T20:16:13.174Z,100.00
2023-07-03T20:18:39.747Z,100.00
2023-07-03T20:21:08.435Z,100.00
2023-07-03T20:23:35.757Z,100.00
2023-07-03T20:26:04.525Z,100.00
2023-07-03T20:28:31.520Z,100.00
2023-07-03T20:30:58.174Z,100.00
2023-07-03T20:33:24.861Z,100.00
2023-07-03T20:36:13.842Z,100.00
2023-07-03T20:38:40.556Z,100.00
2023-07-03T20:41:10.171Z,100.00
2023-07-03T20:43:39.510Z,100.00
2023-07-03T20:46:15.021Z,100.00
2023-07-03T20:48:42.548Z,100.00
2023-07-03T20:51:13.452Z,100.00
2023-07-03T20:53:53.976Z,100.00
2023-07-03T20:56:31.880Z,100.00
2023-07-03T20:59:00.021Z,100.00
2023-07-03T21:01:28.312Z,100.00
2023-07-03T21:03:56.129Z,100.00
2023-07-03T21:06:25.788Z,100.00
2023-07-03T21:08:52.757Z,100.00
2023-07-03T21:11:21.306Z,100.00
2023-07-03T21:13:53.228Z,100.00
2023-07-03T21:16:22.536Z,100.00
2023-07-03T21:18:50.148Z,100.00
2023-07-03T21:21:19.341Z,100.00
2023-07-03T21:23:46.490Z,100.00
2023-07-03T21:26:16.200Z,100.00
2023-07-03T21:28:42.772Z,100.00
2023-07-03T21:31:13.525Z,100.00
2023-07-03T21:33:40.781Z,100.00
2023-07-03T21:36:11.736Z,100.00
2023-07-03T21:38:39.500Z,100.00
2023-07-03T21:41:06.667Z,100.00
2023-07-03T21:43:33.667Z,100.00
2023-07-03T21:46:12.680Z,100.00
2023-07-03T21:48:41.663Z,100.00
2023-07-03T21:51:11.701Z,100.00
2023-07-03T21:53:39.017Z,100.00
2023-07-03T21:56:06.781Z,100.00
2023-07-03T21:58:34.239Z,100.00
2023-07-03T22:01:02.157Z,100.00
2023-07-03T22:03:29.246Z,100.00
2023-07-03T22:05:55.973Z,100.00
2023-07-03T22:08:23.418Z,100.00
2023-07-03T22:10:50.679Z,100.00
2023-07-03T22:13:17.388Z,100.00
2023-07-03T22:15:44.481Z,100.00
2023-07-03T22:18:11.190Z,100.00
2023-07-03T22:20:37.660Z,100.00
2023-07-03T22:23:05.155Z,100.00
2023-07-03T22:25:31.623Z,100.00
2023-07-03T22:27:59.415Z,100.00
2023-07-03T22:30:25.915Z,100.00
2023-07-03T22:32:52.492Z,100.00
2023-07-03T22:35:19.006Z,100.00
2023-07-03T22:37:45.632Z,100.00
2023-07-03T22:40:13.647Z,100.00
2023-07-03T22:42:41.319Z,100.00
2023-07-03T22:45:10.462Z,100.00
2023-07-03T22:47:37.193Z,100.00
2023-07-03T22:50:03.900Z,100.00
2023-07-03T22:52:31.514Z,100.00
2023-07-03T22:54:59.827Z,100.00
2023-07-03T22:57:27.065Z,100.00
2023-07-03T22:59:54.745Z,100.00
2023-07-03T23:02:21.695Z,100.00
2023-07-03T23:04:48.653Z,100.00
2023-07-03T23:07:15.344Z,100.00
2023-07-03T23:09:43.960Z,100.00
2023-07-03T23:12:10.996Z,100.00
2023-07-03T23:14:37.620Z,100.00
2023-07-03T23:17:04.439Z,100.00
2023-07-03T23:19:32.640Z,100.00
2023-07-03T23:21:59.283Z,100.00
2023-07-03T23:24:26.253Z,100.00
2023-07-03T23:26:53.445Z,100.00
2023-07-03T23:29:21.955Z,100.00
2023-07-03T23:31:49.092Z,100.00
2023-07-03T23:34:15.790Z,100.00
2023-07-03T23:36:42.484Z,100.00
2023-07-03T23:39:11.956Z,100.00
2023-07-03T23:41:38.585Z,100.00
2023-07-03T23:44:05.759Z,100.00
2023-07-03T23:46:33.181Z,100.00
2023-07-03T23:49:03.194Z,100.00
2023-07-03T23:51:32.818Z,100.00
2023-07-03T23:53:59.975Z,100.00
2023-07-03T23:56:26.537Z,100.00
2023-07-03T23:58:53.011Z,100.00
